Flight Track Log - Related Links

Times and Time Zones

All times are in EDT time to prevent confusion due to time zone crossing. See the SWA525 flight status page for this flight to view local times or setup timezone preferences in your user account.

Time Position Orientation Groundspeed Altitude Reporting Facility
EDT Latitude Longitude Course Direction KTS MPH feet Rate Location/Type
Fri 06:16:07 PM 29.9367 -90.2675 195° South 189 217 2,300  Level Houston Center
Fri 06:16:22 PM 29.9261 -90.2719 200° South 207 238 2,700 2,687 Climbing Houston Center
Fri 06:17:14 PM 29.8717 -90.2533 163° South 269 310 5,300 2,855 Climbing Houston Center
Fri 06:18:26 PM 29.8122 -90.1911 138° Southeast 258 297 8,600 2,463 Climbing Houston Center
Fri 06:19:28 PM 29.7531 -90.1306 138° Southeast 274 315 10,800 2,129 Climbing Houston Center
Fri 06:20:30 PM 29.6825 -90.0606 139° Southeast 317 365 13,000 2,419 Climbing Houston Center
Fri 06:21:32 PM 29.5919 -89.9725 140° Southeast 348 400 15,800 2,323 Climbing Houston Center
Fri 06:22:34 PM 29.5239 -89.8853 132° Southeast 369 425 17,800 1,920 Climbing Houston Center
Fri 06:23:37 PM 29.4836 -89.7767 113° Southeast 376 433 19,800 1,920 Climbing Houston Center
Fri 06:24:39 PM 29.4414 -89.6614 113° Southeast 389 448 21,800 1,694 Climbing Houston Center
Fri 06:25:41 PM 29.3972 -89.5422 113° Southeast 405 466 23,300 1,694 Climbing Houston Center
Fri 06:26:43 PM 29.3433 -89.3911 112° Southeast 424 488 25,300 1,548 Climbing Houston Center
Fri 06:27:45 PM 29.2964 -89.2647 113° Southeast 432 497 26,500 1,113 Climbing Houston Center
Fri 06:28:47 PM 29.2472 -89.1328 113° Southeast 447 514 27,600 1,113 Climbing Houston Center
Fri 06:29:49 PM 29.1967 -88.9989 113° Southeast 458 527 28,800 1,016 Climbing Houston Center
Fri 06:30:51 PM 29.1453 -88.8594 113° Southeast 471 542 29,700 1,210 Climbing Houston Center
Fri 06:31:53 PM 29.0828 -88.6911 113° Southeast 479 551 31,300 1,306 Climbing Houston Center
Fri 06:32:55 PM 29.0311 -88.5536 113° Southeast 474 545 32,400 1,056 Climbing Houston Center
Fri 06:33:58 PM 28.9797 -88.4164 113° Southeast 472 543 33,500 960 Climbing Houston Center
Fri 06:35:00 PM 28.9281 -88.2808 114° Southeast 469 540 34,400 726 Climbing Houston Center
Fri 06:36:02 PM 28.8756 -88.1447 114° Southeast 468 539 35,000 290 Climbing Houston Center
Fri 06:37:04 PM 28.8211 -87.9992 113° Southeast 473 544 35,000  Level Houston Center
Fri 06:38:06 PM 28.7669 -87.8611 114° Southeast 477 549 35,000  Level Houston Center
Fri 06:39:08 PM 28.7036 -87.6944 113° Southeast 478 550 35,000  Level Houston Center
Fri 06:40:10 PM 28.6506 -87.5572 114° Southeast 475 547 35,000  Level Houston Center
Fri 06:41:12 PM 28.5969 -87.4206 114° Southeast 472 543 35,000  Level Houston Center
Fri 06:41:28 PM 28.5825 -87.3886 117° Southeast 470 541 35,000  Level Jacksonville Center
Fri 06:42:28 PM 28.5347 -87.2589 113° Southeast 466 536 35,000  Level Jacksonville Center
Fri 06:43:28 PM 28.4792 -87.1172 114° Southeast 471 542 35,000  Level Jacksonville Center
Fri 06:44:28 PM 28.4250 -86.9781 114° Southeast 471 542 35,000  Level Jacksonville Center
Fri 06:45:28 PM 28.3711 -86.8392 114° Southeast 476 548 35,000  Level Jacksonville Center
Fri 06:46:28 PM 28.3147 -86.6978 114° Southeast 476 548 35,000  Level Jacksonville Center
Fri 06:47:28 PM 28.2836 -86.5506 103° East 469 540 35,000  Level Jacksonville Center
Fri 06:48:28 PM 28.2544 -86.4033 103° East 478 550 35,000  Level Jacksonville Center
Fri 06:49:28 PM 28.2247 -86.2586 103° East 478 550 35,000  Level Jacksonville Center
Fri 06:50:28 PM 28.1931 -86.1117 104° East 478 550 35,000  Level Jacksonville Center
Fri 06:51:28 PM 28.1633 -85.9600 102° East 473 544 35,000  Level Jacksonville Center
Fri 06:52:28 PM 28.1333 -85.8203 104° East 473 544 35,000  Level Jacksonville Center
Fri 06:53:28 PM 28.1033 -85.6711 103° East 473 544 35,000  Level Jacksonville Center
Fri 06:54:28 PM 28.0708 -85.5197 104° East 473 544 35,000  Level Jacksonville Center
Fri 06:56:03 PM 28.0189 -85.2681 103° East 482 555 35,000  Level Miami Center
Fri 06:57:03 PM 27.9897 -85.1228 103° East 482 555 35,000  Level Miami Center
Fri 06:58:03 PM 27.9583 -84.9797 104° East 476 548 35,000  Level Miami Center
Fri 06:59:03 PM 27.9344 -84.8464 101° East 481 554 35,000  Level Miami Center
Fri 07:00:03 PM 27.9261 -84.6958 94° East 476 548 35,000  Level Miami Center
Fri 07:01:03 PM 27.9258 -84.5478 90° East 471 542 35,000  Level Miami Center
Fri 07:02:03 PM 27.9150 -84.3994 95° East 471 542 35,000  Level Miami Center
Fri 07:03:03 PM 27.9081 -84.2511 93° East 471 542 35,000  Level Miami Center
Fri 07:04:03 PM 27.9053 -84.1031 91° East 476 548 35,000  Level Miami Center
Fri 07:05:03 PM 27.8961 -83.9522 94° East 476 548 35,000 -650 Level Miami Center
Fri 07:06:03 PM 27.8872 -83.7922 94° East 481 554 33,700 -2,250 Descending Miami Center
Fri 07:07:03 PM 27.8833 -83.6558 92° East 481 554 30,500 -2,850 Descending Miami Center
Fri 07:08:03 PM 27.8756 -83.5100 93° East 481 554 28,000 -2,400 Descending Miami Center
Fri 07:09:03 PM 27.8678 -83.3569 93° East 463 533 25,700 -1,950 Descending Miami Center
Fri 07:10:03 PM 27.8633 -83.2253 92° East 443 510 24,100 -1,300 Descending Miami Center
Fri 07:11:03 PM 27.8544 -83.0933 94° East 425 489 23,100 -950 Descending Miami Center
Fri 07:12:03 PM 27.8497 -82.9642 92° East 420 483 22,200 -900 Descending Miami Center
Fri 07:13:03 PM 27.8461 -82.8467 92° East 420 483 21,300 -950 Descending Miami Center
Fri 07:14:03 PM 27.8389 -82.7172 94° East 414 476 20,300 -1,000 Descending Miami Center
Fri 07:15:03 PM 27.8253 -82.5897 97° East 409 471 19,300 -1,000 Descending Miami Center
Fri 07:16:03 PM 27.8406 -82.4708 82° East 398 458 18,300 -950 Descending Miami Center
Fri 07:17:03 PM 27.8828 -82.3508 68° East 367 422 17,400 -900 Descending Miami Center
Fri 07:18:03 PM 27.9161 -82.2419 71° East 372 428 16,500 -955 Descending Miami Center
Fri 07:20:24 PM 28.0000 -81.9833 70° East 354 407 14,200 -1,045 Descending Orlando TRACON
Fri 07:21:24 PM 28.0500 -81.9000 56° Northeast 330 380 13,000 -939 Descending Orlando TRACON
Fri 07:22:19 PM 28.0833 -81.8333 60° Northeast 288 331 12,400 -1,200 Descending Orlando TRACON
Fri 07:23:24 PM 28.1167 -81.7333 69° East 281 323 10,600 -1,824 Descending Orlando TRACON
Fri 07:24:24 PM 28.1667 -81.6667 50° Northeast 283 326 8,600 -1,785 Descending Orlando TRACON
Fri 07:25:25 PM 28.1667 -81.5667 90° East 293 337 7,000 -1,043 Descending Orlando TRACON
Fri 07:26:19 PM 28.1667 -81.5000 90° East 267 307 6,600 -1,000 Descending Orlando TRACON
Fri 07:27:19 PM 28.2167 -81.4333 50° Northeast 253 291 5,100 -1,500 Descending Orlando TRACON
Fri 07:28:19 PM 28.2667 -81.3833 41° Northeast 240 276 3,600 -1,450 Descending Orlando TRACON
Fri 07:29:19 PM 28.3167 -81.3333 41° Northeast 225 259 2,200 -1,048 Descending Orlando TRACON
Fri 07:30:25 PM 28.3500 -81.3000 41° Northeast 156 180 1,400 -810 Descending Orlando TRACON
Fri 07:31:25 PM 28.4000 -81.3000 360° North 138 159 500 -900 Descending Orlando TRACON
Fri 07:33:00 PM 28.4294 -81.3090 North  Level Estimated

Login

Don't have an account? Register now (free) for customized features, flight alerts, and more!